Time;durP1;ratioP1;P1;durP2;ratioP2;P2;SDS_P1;SDS_P2;PMS_P1;PMS_P2;Temp;Humidity;BMP_temperature;BMP_pressure;BME280_temperature;BME280_humidity;BME280_pressure;Samples;Min_cycle;Max_cycle;Signal;HPM_P1;HPM_P2
2022/02/08 00:00:14;;;;;;;;;;;;;;;2.30;100.00;98510.09;1595822;88;26180;-87
2022/02/08 00:02:50;;;;;;;;;;;;;;;2.32;100.00;98508.31;1577042;91;20539;-87
2022/02/08 00:05:15;;;;;;;;;;;;;;;2.32;100.00;98514.77;1605944;88;20283;-86
2022/02/08 00:07:45;;;;;;;;;;;;;;;2.34;100.00;98510.40;1603127;89;25630;-87
2022/02/08 00:10:15;;;;;;;;;;;;;;;2.37;100.00;98518.88;1584613;89;21671;-87
2022/02/08 00:12:41;;;;;;;;;;;;;;;2.38;100.00;98520.56;1577690;90;26022;-87
2022/02/08 00:15:09;;;;;;;;;;;;;;;2.38;100.00;98510.67;1579912;89;20227;-87
2022/02/08 00:17:41;;;;;;;;;;;;;;;2.41;100.00;98517.01;1599459;89;20250;-87
2022/02/08 00:20:08;;;;;;;;;;;;;;;2.41;100.00;98520.44;1585281;89;24637;-87
2022/02/08 00:22:35;;;;;;;;;;;;;;;2.41;100.00;98527.34;1579224;90;22070;-87
2022/02/08 00:25:10;;;;;;;;;;;;;;;2.41;100.00;98524.76;1611806;87;25700;-86
2022/02/08 00:27:37;;;;;;;;;;;;;;;2.39;100.00;98526.57;1600864;89;25269;-84
2022/02/08 00:30:05;;;;;;;;;;;;;;;2.37;100.00;98536.10;1627299;87;20285;-83
2022/02/08 00:32:31;;;;;;;;;;;;;;;2.34;100.00;98531.91;1628913;87;24705;-83
2022/02/08 00:34:57;;;;;;;;;;;;;;;2.38;100.00;98530.05;1623826;87;21975;-83
2022/02/08 00:37:23;;;;;;;;;;;;;;;2.42;100.00;98535.05;1584936;90;26023;-86
2022/02/08 00:39:50;;;;;;;;;;;;;;;2.43;100.00;98538.02;1577037;90;25373;-87
2022/02/08 00:42:16;;;;;;;;;;;;;;;2.42;100.00;98535.05;1602597;89;20231;-87
2022/02/08 00:44:51;;;;;;;;;;;;;;;2.42;100.00;98541.50;1612494;89;24801;-86
2022/02/08 00:47:25;;;;;;;;;;;;;;;2.42;100.00;98545.37;1603693;89;22686;-84
2022/02/08 00:49:44;;;;;;;;;;;;;;;2.41;100.00;98549.29;1611486;89;25982;-83
2022/02/08 00:52:15;;;;;;;;;;;;;;;2.40;100.00;98545.05;1613465;87;24522;-84
2022/02/08 00:54:47;;;;;;;;;;;;;;;2.42;100.00;98552.27;1612983;88;20313;-87
2022/02/08 00:57:13;;;;;;;;;;;;;;;2.43;100.00;98557.84;1604605;89;24838;-87
2022/02/08 00:59:43;;;;;;;;;;;;;;;2.38;100.00;98554.13;1584817;89;22033;-87
2022/02/08 01:02:09;;;;;;;;;;;;;;;2.39;100.00;98558.41;1579145;90;26025;-83
2022/02/08 01:04:35;;;;;;;;;;;;;;;2.41;100.00;98555.75;1608684;88;24434;-83
2022/02/08 01:07:04;;;;;;;;;;;;;;;2.40;100.00;98562.65;1610145;89;20234;-86
2022/02/08 01:09:48;;;;;;;;;;;;;;;2.40;100.00;98564.41;1610129;89;24794;-86
2022/02/08 01:12:10;;;;;;;;;;;;;;;2.39;100.00;98573.91;1609479;89;22152;-87
2022/02/08 01:14:48;;;;;;;;;;;;;;;2.40;100.00;98570.39;1609917;89;26016;-87
2022/02/08 01:17:23;;;;;;;;;;;;;;;2.40;100.00;98573.45;1610190;89;23982;-86
2022/02/08 01:20:00;;;;;;;;;;;;;;;2.41;100.00;98581.13;1610017;89;20251;-86
2022/02/08 01:22:18;;;;;;;;;;;;;;;2.40;100.00;98587.19;1607936;87;24743;-86
2022/02/08 01:24:46;;;;;;;;;;;;;;;2.41;100.00;98586.73;1610157;89;21926;-86
2022/02/08 01:27:13;;;;;;;;;;;;;;;2.42;100.00;98589.72;1610208;87;26161;-86
2022/02/08 01:37:51;;;;;;;;;;;;;;;2.46;100.00;98602.91;1610094;89;22700;-83
2022/02/08 01:43:05;;;;;;;;;;;;;;;2.49;100.00;98609.28;1603088;89;24483;-87
2022/02/08 01:48:26;;;;;;;;;;;;;;;2.47;100.00;98609.33;1588357;90;25555;-87
2022/02/08 01:50:44;;;;;;;;;;;;;;;2.48;100.00;98612.76;1594735;88;20176;-87
2022/02/08 01:53:10;;;;;;;;;;;;;;;2.49;100.00;98611.87;1590009;90;26047;-87
2022/02/08 01:55:37;;;;;;;;;;;;;;;2.52;100.00;98617.76;1589710;90;24529;-87
2022/02/08 01:58:07;;;;;;;;;;;;;;;2.55;100.00;98625.86;1567150;90;20256;-84
2022/02/08 02:00:33;;;;;;;;;;;;;;;2.55;100.00;98624.58;1589986;90;24744;-83
2022/02/08 02:03:00;;;;;;;;;;;;;;;2.57;100.00;98633.09;1590192;90;21824;-83
2022/02/08 02:05:28;;;;;;;;;;;;;;;2.58;100.00;98639.11;1588289;88;26913;-83
2022/02/08 02:07:54;;;;;;;;;;;;;;;2.60;100.00;98639.47;1589798;90;24716;-83
2022/02/08 02:10:21;;;;;;;;;;;;;;;2.61;100.00;98632.56;1589727;90;20472;-83
2022/02/08 02:12:56;;;;;;;;;;;;;;;2.63;100.00;98644.95;1587060;89;24738;-83
2022/02/08 02:15:22;;;;;;;;;;;;;;;2.63;100.00;98642.38;1588170;90;22597;-83
2022/02/08 02:17:48;;;;;;;;;;;;;;;2.64;100.00;98640.19;1590501;89;21113;-83
2022/02/08 02:20:14;;;;;;;;;;;;;;;2.65;100.00;98641.88;1588434;90;24384;-83
2022/02/08 02:22:40;;;;;;;;;;;;;;;2.63;100.00;98649.67;1589745;90;20259;-83
2022/02/08 02:25:07;;;;;;;;;;;;;;;2.65;100.00;98655.64;1589772;90;20782;-83
2022/02/08 02:27:33;;;;;;;;;;;;;;;2.67;100.00;98651.28;1591920;90;21971;-83
2022/02/08 02:29:59;;;;;;;;;;;;;;;2.65;100.00;98655.64;1590122;90;26067;-83
2022/02/08 02:32:27;;;;;;;;;;;;;;;2.65;100.00;98661.26;1586311;88;24398;-83
2022/02/08 02:34:55;;;;;;;;;;;;;;;2.62;100.00;98665.25;1601017;89;20227;-82
2022/02/08 02:37:21;;;;;;;;;;;;;;;2.61;100.00;98665.70;1573248;89;24847;-82
2022/02/08 02:39:47;;;;;;;;;;;;;;;2.61;100.00;98676.48;1601856;87;22158;-82
2022/02/08 02:42:16;;;;;;;;;;;;;;;2.63;100.00;98673.38;1590765;89;25992;-82
2022/02/08 02:44:43;;;;;;;;;;;;;;;2.64;100.00;98681.52;1591353;90;24776;-82
2022/02/08 02:47:09;;;;;;;;;;;;;;;2.66;100.00;98683.63;1592205;90;20556;-83
2022/02/08 02:49:35;;;;;;;;;;;;;;;2.66;100.00;98690.08;1590156;90;24830;-83
2022/02/08 02:52:06;;;;;;;;;;;;;;;2.67;100.00;98687.90;1587065;89;22064;-83
2022/02/08 02:54:29;;;;;;;;;;;;;;;2.71;100.00;98691.61;1591911;90;26319;-82
2022/02/08 02:56:59;;;;;;;;;;;;;;;2.75;100.00;98692.34;1591682;90;24550;-82
2022/02/08 02:59:25;;;;;;;;;;;;;;;2.73;100.00;98696.27;1592047;90;20266;-82
2022/02/08 03:04:39;;;;;;;;;;;;;;;2.69;100.00;98705.47;1592523;90;21991;-87
2022/02/08 03:18:32;;;;;;;;;;;;;;;2.79;100.00;98723.63;1592349;90;22060;-83
2022/02/08 03:20:38;;;;;;;;;;;;;;;2.76;100.00;98730.21;1592337;89;26216;-83
2022/02/08 03:23:05;;;;;;;;;;;;;;;2.76;100.00;98734.94;1592091;90;24496;-83
2022/02/08 03:25:31;;;;;;;;;;;;;;;2.73;100.00;98735.02;1592062;90;20252;-83
2022/02/08 03:27:57;;;;;;;;;;;;;;;2.73;100.00;98730.30;1592389;90;24808;-87
2022/02/08 03:30:24;;;;;;;;;;;;;;;2.71;100.00;98750.20;1591747;90;22060;-87
2022/02/08 03:32:52;;;;;;;;;;;;;;;2.67;100.00;98754.62;1591898;90;26847;-86
2022/02/08 03:35:19;;;;;;;;;;;;;;;2.65;100.00;98755.12;1592261;89;24525;-83
2022/02/08 03:37:54;;;;;;;;;;;;;;;2.68;100.00;98761.91;1592238;89;20186;-83
2022/02/08 03:40:29;;;;;;;;;;;;;;;2.65;100.00;98762.02;1592168;89;24858;-83
2022/02/08 03:42:58;;;;;;;;;;;;;;;2.62;100.00;98768.12;1590319;89;22021;-86
2022/02/08 03:45:12;;;;;;;;;;;;;;;2.59;100.00;98764.36;1599871;88;26236;-87
2022/02/08 03:47:44;;;;;;;;;;;;;;;2.60;100.00;98763.91;1600983;89;23586;-87
2022/02/08 03:50:10;;;;;;;;;;;;;;;2.56;100.00;98761.89;1599392;88;20302;-87
2022/02/08 03:52:38;;;;;;;;;;;;;;;2.56;100.00;98766.20;1609263;87;25412;-86
2022/02/08 03:55:04;;;;;;;;;;;;;;;2.56;100.00;98769.64;1600813;89;22132;-86
2022/02/08 03:57:30;;;;;;;;;;;;;;;2.57;100.00;98780.34;1601479;88;26174;-86
2022/02/08 03:59:56;;;;;;;;;;;;;;;2.55;100.00;98779.56;1584673;89;24414;-86
2022/02/08 04:02:38;;;;;;;;;;;;;;;2.52;100.00;98780.94;1600977;89;20505;-86
2022/02/08 04:04:55;;;;;;;;;;;;;;;2.54;100.00;98792.08;1604916;88;24782;-86
2022/02/08 04:07:23;;;;;;;;;;;;;;;2.53;100.00;98793.81;1608841;89;22954;-86
2022/02/08 04:09:48;;;;;;;;;;;;;;;2.55;100.00;98799.39;1610073;88;26205;-86
2022/02/08 04:12:27;;;;;;;;;;;;;;;2.55;100.00;98809.72;1609761;89;25199;-86
2022/02/08 04:14:57;;;;;;;;;;;;;;;2.54;100.00;98811.45;1610251;89;20584;-86
2022/02/08 04:17:34;;;;;;;;;;;;;;;2.52;100.00;98819.69;1609971;88;25458;-86
2022/02/08 04:31:17;;;;;;;;;;;;;;;2.54;100.00;98817.91;1609959;87;21991;-85
2022/02/08 04:36:22;;;;;;;;;;;;;;;2.56;100.00;98842.41;1609900;89;26028;-86
2022/02/08 04:38:47;;;;;;;;;;;;;;;2.56;100.00;98851.45;1610698;88;25374;-85
2022/02/08 04:41:06;;;;;;;;;;;;;;;2.53;100.00;98857.11;1610107;87;20731;-85
2022/02/08 04:43:40;;;;;;;;;;;;;;;2.53;100.00;98851.94;1605481;89;25618;-85
2022/02/08 04:46:30;;;;;;;;;;;;;;;2.55;100.00;98865.26;1589349;90;22114;-86
2022/02/08 04:48:53;;;;;;;;;;;;;;;2.55;100.00;98863.97;1594089;88;26134;-87
2022/02/08 04:54:04;;;;;;;;;;;;;;;2.53;100.00;98858.84;1595616;90;20235;-87
2022/02/08 05:27:07;;;;;;;;;;;;;;;2.49;100.00;98899.88;1595131;90;22072;-87
2022/02/08 05:35:19;;;;;;;;;;;;;;;2.41;100.00;98904.41;1603696;89;20151;-87
2022/02/08 05:37:24;;;;;;;;;;;;;;;2.37;100.00;98912.70;1598673;89;24765;-86
2022/02/08 05:45:08;;;;;;;;;;;;;;;2.32;100.00;98913.28;1574155;89;24541;-86
2022/02/08 05:47:25;;;;;;;;;;;;;;;2.30;100.00;98915.49;1604241;89;20277;-87
2022/02/08 05:50:04;;;;;;;;;;;;;;;2.31;100.00;98926.23;1610865;88;24727;-87
2022/02/08 05:52:44;;;;;;;;;;;;;;;2.29;100.00;98926.27;1579974;90;22886;-86
2022/02/08 05:54:51;;;;;;;;;;;;;;;2.28;100.00;98920.72;1604605;89;26185;-87
2022/02/08 05:57:19;;;;;;;;;;;;;;;2.27;100.00;98928.06;1583474;88;21159;-83
2022/02/08 05:59:45;;;;;;;;;;;;;;;2.27;100.00;98926.77;1613600;88;20230;-83
2022/02/08 06:02:11;;;;;;;;;;;;;;;2.32;100.00;98931.80;1588738;90;24927;-87
2022/02/08 06:04:39;;;;;;;;;;;;;;;2.30;100.00;98935.70;1590314;90;22080;-86
2022/02/08 06:07:05;;;;;;;;;;;;;;;2.29;100.00;98930.61;1590099;90;26124;-86
2022/02/08 06:09:32;;;;;;;;;;;;;;;2.31;100.00;98931.39;1561568;90;24649;-86
2022/02/08 06:11:58;;;;;;;;;;;;;;;2.28;100.00;98932.78;1590112;90;20465;-86
2022/02/08 06:14:25;;;;;;;;;;;;;;;2.28;100.00;98932.34;1589970;89;24814;-87
2022/02/08 06:17:00;;;;;;;;;;;;;;;2.28;100.00;98932.34;1590328;90;22831;-86
2022/02/08 06:19:26;;;;;;;;;;;;;;;2.29;100.00;98933.19;1590155;90;26111;-84
2022/02/08 06:21:52;;;;;;;;;;;;;;;2.31;100.00;98941.72;1589991;90;24585;-83
2022/02/08 06:24:19;;;;;;;;;;;;;;;2.32;100.00;98945.56;1590012;90;20195;-87
2022/02/08 06:26:50;;;;;;;;;;;;;;;2.33;100.00;98955.00;1590283;89;24934;-88
2022/02/08 06:29:22;;;;;;;;;;;;;;;2.35;100.00;98954.50;1590205;90;22026;-83
2022/02/08 06:31:45;;;;;;;;;;;;;;;2.35;100.00;98963.53;1590619;89;26092;-83
2022/02/08 06:34:17;;;;;;;;;;;;;;;2.36;100.00;98960.06;1588470;90;24549;-87
2022/02/08 06:36:40;;;;;;;;;;;;;;;2.39;100.00;98963.02;1590218;89;20277;-87
2022/02/08 06:39:06;;;;;;;;;;;;;;;2.42;100.00;98966.80;1590183;90;24803;-83
2022/02/08 06:41:33;;;;;;;;;;;;;;;2.44;100.00;98967.17;1590176;90;22230;-87
2022/02/08 06:44:01;;;;;;;;;;;;;;;2.48;100.00;98966.63;1591670;89;26842;-86
2022/02/08 06:46:28;;;;;;;;;;;;;;;2.48;100.00;98974.38;1609855;89;24660;-86
2022/02/08 06:48:54;;;;;;;;;;;;;;;2.49;100.00;98970.91;1610104;89;20230;-85
2022/02/08 06:51:27;;;;;;;;;;;;;;;2.48;100.00;98971.80;1610193;89;25329;-86
2022/02/08 06:54:06;;;;;;;;;;;;;;;2.48;100.00;98979.54;1599696;89;22783;-87
2022/02/08 06:56:32;;;;;;;;;;;;;;;2.49;100.00;98974.78;1613662;89;25566;-86
2022/02/08 06:59:06;;;;;;;;;;;;;;;2.51;100.00;98986.75;1607192;89;24402;-84
2022/02/08 07:01:33;;;;;;;;;;;;;;;2.53;100.00;98982.39;1611865;88;20187;-87
2022/02/08 07:04:14;;;;;;;;;;;;;;;2.55;100.00;98986.23;1605018;89;24949;-86
2022/02/08 07:06:36;;;;;;;;;;;;;;;2.56;100.00;98987.94;1608925;89;22095;-85
2022/02/08 07:09:03;;;;;;;;;;;;;;;2.60;100.00;98988.23;1610367;89;26025;-86
2022/02/08 07:11:29;;;;;;;;;;;;;;;2.60;100.00;98986.95;1610007;89;24438;-86
2022/02/08 07:14:02;;;;;;;;;;;;;;;2.61;100.00;98989.09;1610265;89;20270;-86
2022/02/08 07:16:28;;;;;;;;;;;;;;;2.62;100.00;98994.66;1608951;89;25707;-86
2022/02/08 07:18:54;;;;;;;;;;;;;;;2.62;100.00;98992.08;1610200;89;22072;-83
2022/02/08 07:21:20;;;;;;;;;;;;;;;2.63;100.00;98995.88;1602093;89;26032;-83
2022/02/08 07:23:47;;;;;;;;;;;;;;;2.64;100.00;98994.16;1628257;87;24489;-83
2022/02/08 07:26:13;;;;;;;;;;;;;;;2.67;100.00;98998.80;1584646;90;20254;-83
2022/02/08 07:28:42;;;;;;;;;;;;;;;2.63;100.00;98990.72;1578396;89;24756;-83
2022/02/08 07:31:14;;;;;;;;;;;;;;;2.75;100.00;99007.61;1612516;87;22016;-87
2022/02/08 07:34:03;;;;;;;;;;;;;;;2.79;100.00;99004.03;1605655;89;22162;-86
2022/02/08 07:36:42;;;;;;;;;;;;;;;2.81;100.00;99003.11;1643120;86;25338;-87
2022/02/08 07:39:00;;;;;;;;;;;;;;;2.79;100.00;98998.42;1634492;87;20637;-83
2022/02/08 07:41:36;;;;;;;;;;;;;;;2.82;100.00;99004.81;1639733;86;24760;-83
2022/02/08 07:44:05;;;;;;;;;;;;;;;2.84;100.00;98996.55;1633579;87;21881;-83
2022/02/08 07:46:31;;;;;;;;;;;;;;;2.88;100.00;99003.34;1641473;87;26059;-83
2022/02/08 07:48:58;;;;;;;;;;;;;;;2.95;100.00;99003.53;1634130;86;24393;-83
2022/02/08 07:51:24;;;;;;;;;;;;;;;3.03;100.00;99011.52;1632545;87;20217;-87
2022/02/08 07:53:56;;;;;;;;;;;;;;;3.03;100.00;99007.19;1638574;87;24803;-87
2022/02/08 07:56:22;;;;;;;;;;;;;;;3.05;100.00;99005.86;1634953;87;22098;-86
2022/02/08 07:58:49;;;;;;;;;;;;;;;3.04;100.00;99010.63;1635863;86;26067;-87
2022/02/08 08:01:15;;;;;;;;;;;;;;;3.09;100.00;99005.72;1641223;86;24272;-85
2022/02/08 08:03:41;;;;;;;;;;;;;;;3.14;100.00;98998.66;1640196;87;20214;-85
2022/02/08 08:06:09;;;;;;;;;;;;;;;3.19;100.00;98990.31;1641101;87;24771;-83
2022/02/08 08:08:36;;;;;;;;;;;;;;;3.23;100.00;98987.17;1641005;87;22214;-83
2022/02/08 08:11:07;;;;;;;;;;;;;;;3.26;100.00;98994.41;1639942;86;26182;-87
2022/02/08 08:13:37;;;;;;;;;;;;;;;3.30;100.00;98995.14;1634646;87;24455;-87
2022/02/08 08:16:12;;;;;;;;;;;;;;;3.33;100.00;98992.00;1634945;86;20189;-83
2022/02/08 08:18:45;;;;;;;;;;;;;;;3.36;100.00;98998.83;1635757;86;25575;-83
2022/02/08 08:21:02;;;;;;;;;;;;;;;3.36;100.00;98996.25;1633490;86;21997;-84
2022/02/08 08:23:28;;;;;;;;;;;;;;;3.40;100.00;98991.81;1634821;87;26033;-84
2022/02/08 08:25:54;;;;;;;;;;;;;;;3.42;100.00;98993.47;1636807;86;24496;-83
2022/02/08 08:28:22;;;;;;;;;;;;;;;3.46;100.00;98991.17;1635123;87;20197;-87
2022/02/08 08:30:48;;;;;;;;;;;;;;;3.49;100.00;98991.53;1610653;88;24860;-87
2022/02/08 08:33:22;;;;;;;;;;;;;;;3.54;100.00;98987.05;1601194;88;22002;-88
2022/02/08 08:35:49;;;;;;;;;;;;;;;3.57;100.00;98988.23;1597650;88;26125;-88
2022/02/08 08:38:18;;;;;;;;;;;;;;;3.65;100.00;98992.28;1601119;88;24529;-87
2022/02/08 08:40:57;;;;;;;;;;;;;;;3.71;100.00;98996.38;1596152;89;20239;-88
2022/02/08 08:44:15;;;;;;;;;;;;;;;3.76;100.00;98991.44;1628627;86;24787;-88
2022/02/08 08:51:19;;;;;;;;;;;;;;;3.86;100.00;98978.20;1625387;86;24666;-86
2022/02/08 08:53:33;;;;;;;;;;;;;;;3.87;100.00;98976.88;1606071;87;20346;-86
2022/02/08 08:55:59;;;;;;;;;;;;;;;3.91;100.00;98978.45;1605361;87;24820;-86
2022/02/08 08:58:25;;;;;;;;;;;;;;;3.98;100.00;98974.73;1601588;88;21989;-86
2022/02/08 09:00:51;;;;;;;;;;;;;;;4.03;100.00;98974.14;1627526;86;26030;-83
2022/02/08 09:03:17;;;;;;;;;;;;;;;4.07;100.00;98956.75;1630846;86;24535;-83
2022/02/08 09:05:43;;;;;;;;;;;;;;;4.09;100.00;98944.59;1625141;86;20285;-83
2022/02/08 09:08:09;;;;;;;;;;;;;;;4.19;100.00;98940.33;1630947;86;24799;-83
2022/02/08 09:10:51;;;;;;;;;;;;;;;4.28;100.00;98936.55;1630153;86;22015;-83
2022/02/08 09:13:25;;;;;;;;;;;;;;;4.29;100.00;98939.98;1639480;86;26356;-83
2022/02/08 09:16:00;;;;;;;;;;;;;;;4.36;100.00;98940.16;1601745;88;25233;-83
2022/02/08 09:18:43;;;;;;;;;;;;;;;4.37;100.00;98940.53;1623630;87;20221;-83
2022/02/08 09:21:21;;;;;;;;;;;;;;;4.35;100.00;98936.73;1626610;87;25643;-84
2022/02/08 09:23:44;;;;;;;;;;;;;;;4.31;100.00;98927.35;1638638;86;22186;-84
2022/02/08 09:26:06;;;;;;;;;;;;;;;4.29;100.00;98923.99;1634238;87;26803;-84
2022/02/08 09:31:04;;;;;;;;;;;;;;;4.38;100.00;98922.34;1638885;86;20256;-84
2022/02/08 09:33:29;;;;;;;;;;;;;;;4.37;100.00;98923.24;1627286;86;25458;-84
2022/02/08 09:36:00;;;;;;;;;;;;;;;4.28;100.00;98921.45;1621686;88;22198;-86
2022/02/08 09:38:30;;;;;;;;;;;;;;;4.17;100.00;98921.40;1621865;88;26088;-86
2022/02/08 09:40:54;;;;;;;;;;;;;;;4.11;100.00;98929.38;1613165;87;24150;-85
2022/02/08 09:43:20;;;;;;;;;;;;;;;4.10;100.00;98934.61;1622130;87;20224;-86
2022/02/08 09:45:49;;;;;;;;;;;;;;;4.14;100.00;98933.17;1649927;85;24907;-85
2022/02/08 09:48:25;;;;;;;;;;;;;;;4.20;100.00;98930.78;1642106;85;21999;-87
2022/02/08 09:50:49;;;;;;;;;;;;;;;4.26;100.00;98933.16;1649306;86;27557;-87
2022/02/08 09:55:49;;;;;;;;;;;;;;;4.33;100.00;98933.34;1639758;87;20248;-87
2022/02/08 09:58:15;;;;;;;;;;;;;;;4.42;100.00;98926.98;1644289;87;24963;-87
2022/02/08 10:00:41;;;;;;;;;;;;;;;4.46;100.00;98922.92;1661770;86;22071;-87
2022/02/08 10:03:12;;;;;;;;;;;;;;;4.57;100.00;98927.25;1654861;85;26048;-87
2022/02/08 10:05:39;;;;;;;;;;;;;;;4.68;100.00;98926.00;1624957;88;24541;-87
2022/02/08 10:08:06;;;;;;;;;;;;;;;4.80;100.00;98916.45;1655014;85;20255;-87
2022/02/08 10:10:32;;;;;;;;;;;;;;;4.80;100.00;98913.38;1656970;85;24818;-87
2022/02/08 10:13:13;;;;;;;;;;;;;;;4.79;100.00;98916.06;1654715;86;21944;-86
2022/02/08 10:21:43;;;;;;;;;;;;;;;4.81;100.00;98907.75;1653990;85;20486;-86
2022/02/08 10:23:37;;;;;;;;;;;;;;;4.81;100.00;98901.27;1643710;86;24806;-87
2022/02/08 10:26:07;;;;;;;;;;;;;;;4.81;100.00;98884.41;1624843;88;22082;-88
2022/02/08 10:28:52;;;;;;;;;;;;;;;4.76;100.00;98886.34;1623442;88;26274;-88
2022/02/08 10:31:26;;;;;;;;;;;;;;;4.70;100.00;98889.17;1618064;87;24433;-82
2022/02/08 10:39:06;;;;;;;;;;;;;;;4.85;100.00;98882.11;1605228;87;22093;-82
2022/02/08 10:41:34;;;;;;;;;;;;;;;4.91;100.00;98876.20;1605878;88;26944;-82
2022/02/08 10:44:05;;;;;;;;;;;;;;;4.99;100.00;98859.05;1600554;89;25429;-83
2022/02/08 10:46:33;;;;;;;;;;;;;;;5.06;100.00;98852.72;1628609;86;20255;-83
2022/02/08 10:49:07;;;;;;;;;;;;;;;5.12;100.00;98851.17;1604144;88;24830;-82
2022/02/08 10:51:47;;;;;;;;;;;;;;;5.24;100.00;98852.39;1599791;88;22117;-82
2022/02/08 10:54:16;;;;;;;;;;;;;;;5.25;100.00;98860.13;1602294;88;26020;-82
2022/02/08 10:56:40;;;;;;;;;;;;;;;5.27;100.00;98847.94;1600405;89;24560;-82
2022/02/08 10:59:19;;;;;;;;;;;;;;;5.27;100.00;98840.16;1634297;86;20261;-86
2022/02/08 11:01:52;;;;;;;;;;;;;;;5.29;100.00;98837.50;1635708;86;37994;-87
2022/02/08 11:04:21;;;;;;;;;;;;;;;5.42;100.00;98836.05;1632292;87;22016;-87
2022/02/08 11:06:43;;;;;;;;;;;;;;;5.43;100.00;98809.20;1631462;87;26268;-86
2022/02/08 11:12:22;;;;;;;;;;;;;;;5.36;100.00;98821.59;1630972;87;20354;-85
2022/02/08 11:15:22;;;;;;;;;;;;;;;5.36;99.74;98824.19;1599179;88;24927;-85
2022/02/08 11:18:03;;;;;;;;;;;;;;;5.36;99.50;98828.53;1629460;87;22057;-85
2022/02/08 11:20:18;;;;;;;;;;;;;;;5.39;99.37;98824.07;1628400;87;26188;-84
2022/02/08 11:22:48;;;;;;;;;;;;;;;5.37;99.18;98819.39;1629439;87;24476;-85
2022/02/08 11:25:22;;;;;;;;;;;;;;;5.35;98.93;98823.79;1621782;87;20222;-86
2022/02/08 11:27:51;;;;;;;;;;;;;;;5.40;98.86;98816.65;1632482;86;24884;-85
2022/02/08 11:30:21;;;;;;;;;;;;;;;5.44;98.80;98816.93;1632046;87;22177;-86
2022/02/08 11:32:58;;;;;;;;;;;;;;;5.45;98.61;98821.67;1633492;87;26153;-86
2022/02/08 11:46:29;;;;;;;;;;;;;;;5.30;96.93;98806.73;1603451;86;26190;-86
2022/02/08 11:49:05;;;;;;;;;;;;;;;5.24;96.57;98814.31;1636994;86;24441;-85
2022/02/08 11:51:37;;;;;;;;;;;;;;;5.19;96.23;98792.91;1581656;89;20484;-85
2022/02/08 11:54:04;;;;;;;;;;;;;;;5.11;95.83;98795.01;1627784;86;24827;-86
2022/02/08 11:56:38;;;;;;;;;;;;;;;5.02;95.40;98810.48;1624302;88;22010;-85
2022/02/08 12:01:41;;;;;;;;;;;;;;;4.96;94.80;98812.03;1625647;86;24665;-85
2022/02/08 12:04:18;;;;;;;;;;;;;;;4.94;94.58;98815.61;1627215;88;20328;-85
2022/02/08 12:06:54;;;;;;;;;;;;;;;4.90;94.39;98817.50;1626573;87;24836;-83
2022/02/08 12:09:19;;;;;;;;;;;;;;;4.88;94.14;98834.86;1628704;87;22002;-86
2022/02/08 12:39:56;;;;;;;;;;;;;;;4.98;92.79;98796.41;1629538;87;26011;-88
2022/02/08 12:55:57;;;;;;;;;;;;;;;4.85;91.87;98774.51;1601239;88;24482;-83
2022/02/08 12:58:32;;;;;;;;;;;;;;;4.81;91.72;98777.66;1597011;88;20338;-83
2022/02/08 13:01:34;;;;;;;;;;;;;;;4.82;91.68;98766.39;1600118;88;24847;-83
2022/02/08 13:04:01;;;;;;;;;;;;;;;4.79;91.61;98749.67;1598089;89;22256;-87
2022/02/08 13:14:18;;;;;;;;;;;;;;;4.76;91.50;98761.45;1632186;87;25538;-88
2022/02/08 13:20:14;;;;;;;;;;;;;;;4.67;91.11;98766.17;1618397;86;26745;-86
2022/02/08 14:06:23;;;;;;;;;;;;;;;4.38;93.91;98742.72;1627957;86;20237;-84
2022/02/08 14:09:01;;;;;;;;;;;;;;;4.38;94.06;98747.91;1632828;86;24924;-82
2022/02/08 14:14:15;;;;;;;;;;;;;;;4.39;94.33;98754.33;1633706;87;26164;-84
2022/02/08 14:19:20;;;;;;;;;;;;;;;4.35;94.57;98741.56;1634138;87;20538;-87
2022/02/08 14:21:53;;;;;;;;;;;;;;;4.34;94.70;98739.88;1630620;87;25017;-82
2022/02/08 14:29:45;;;;;;;;;;;;;;;4.37;95.28;98730.22;1629708;87;24512;-86
2022/02/08 14:32:19;;;;;;;;;;;;;;;4.36;95.46;98731.15;1628485;87;20271;-86
2022/02/08 15:09:59;;;;;;;;;;;;;;;4.31;97.60;98712.33;1633859;87;24606;-89
2022/02/08 15:12:29;;;;;;;;;;;;;;;4.29;97.78;98709.42;1635470;87;20220;-88
2022/02/08 15:14:59;;;;;;;;;;;;;;;4.28;98.02;98694.33;1634950;87;25073;-89
2022/02/08 15:17:21;;;;;;;;;;;;;;;4.28;98.25;98702.09;1634173;87;22023;-89
2022/02/08 15:19:49;;;;;;;;;;;;;;;4.25;98.48;98697.51;1634824;87;26167;-83
2022/02/08 15:22:17;;;;;;;;;;;;;;;4.26;98.74;98696.13;1635005;86;25343;-88
2022/02/08 15:24:43;;;;;;;;;;;;;;;4.28;98.98;98705.14;1631604;87;20280;-89
2022/02/08 15:27:12;;;;;;;;;;;;;;;4.27;99.25;98703.00;1635368;87;24753;-89
2022/02/08 15:29:37;;;;;;;;;;;;;;;4.26;99.48;98708.23;1635169;87;22071;-88
2022/02/08 15:32:05;;;;;;;;;;;;;;;4.28;99.73;98705.14;1635282;87;26023;-83
2022/02/08 15:34:31;;;;;;;;;;;;;;;4.27;99.99;98704.74;1632651;87;24548;-84
2022/02/08 15:36:58;;;;;;;;;;;;;;;4.25;100.00;98703.53;1619036;88;20878;-83
2022/02/08 15:39:24;;;;;;;;;;;;;;;4.26;100.00;98700.46;1618841;88;24836;-85
2022/02/08 15:41:50;;;;;;;;;;;;;;;4.25;100.00;98712.59;1618902;88;21948;-85
2022/02/08 15:44:21;;;;;;;;;;;;;;;4.26;100.00;98702.60;1618877;88;25958;-85
2022/02/08 15:46:48;;;;;;;;;;;;;;;4.28;100.00;98713.76;1618359;88;24394;-85
2022/02/08 15:49:15;;;;;;;;;;;;;;;4.30;100.00;98717.14;1618805;88;20250;-85
2022/02/08 15:54:24;;;;;;;;;;;;;;;4.37;100.00;98719.01;1619059;88;22068;-85
2022/02/08 16:10:04;;;;;;;;;;;;;;;4.53;100.00;98709.25;1617875;88;26034;-88
2022/02/08 16:12:35;;;;;;;;;;;;;;;4.55;100.00;98708.75;1617347;88;24686;-88
2022/02/08 16:55:48;;;;;;;;;;;;;;;4.10;100.00;98755.47;1590930;89;20240;-85
2022/02/08 17:00:46;;;;;;;;;;;;;;;4.08;100.00;98736.58;1646705;87;20204;-82
2022/02/08 17:03:12;;;;;;;;;;;;;;;4.10;100.00;98742.96;1645575;85;25881;-84
2022/02/08 17:05:38;;;;;;;;;;;;;;;4.09;100.00;98721.88;1646951;87;24444;-82
2022/02/08 17:08:04;;;;;;;;;;;;;;;4.09;100.00;98712.34;1655937;85;20202;-82
2022/02/08 17:10:41;;;;;;;;;;;;;;;4.08;100.00;98705.95;1621593;88;24729;-82
2022/02/08 17:35:24;;;;;;;;;;;;;;;3.99;100.00;98725.70;1654416;86;20471;-88
2022/02/08 17:48:04;;;;;;;;;;;;;;;4.03;100.00;98716.94;1604528;88;20334;-87
2022/02/08 17:50:30;;;;;;;;;;;;;;;4.03;100.00;98713.90;1603313;89;24695;-86
2022/02/08 17:52:56;;;;;;;;;;;;;;;4.05;100.00;98720.29;1607638;88;21978;-87
2022/02/08 17:55:22;;;;;;;;;;;;;;;4.05;100.00;98732.78;1608597;88;26092;-90
2022/02/08 17:57:54;;;;;;;;;;;;;;;4.06;100.00;98711.63;1605362;89;24389;-84
2022/02/08 18:00:20;;;;;;;;;;;;;;;4.06;100.00;98722.83;1605186;89;20175;-85
2022/02/08 18:02:47;;;;;;;;;;;;;;;4.08;100.00;98717.59;1606218;88;24939;-83
2022/02/08 18:05:15;;;;;;;;;;;;;;;4.09;100.00;98715.41;1603187;89;21972;-86
2022/02/08 18:07:41;;;;;;;;;;;;;;;4.10;100.00;98713.18;1631174;86;26056;-83
2022/02/08 18:10:08;;;;;;;;;;;;;;;4.10;100.00;98720.50;1629587;86;25219;-89
2022/02/08 18:12:34;;;;;;;;;;;;;;;4.12;100.00;98715.27;1628547;88;20225;-87
2022/02/08 18:15:08;;;;;;;;;;;;;;;4.13;100.00;98710.48;1629106;88;24765;-90
2022/02/08 18:17:49;;;;;;;;;;;;;;;4.12;100.00;98708.80;1630098;87;22019;-86
2022/02/08 18:28:39;;;;;;;;;;;;;;;4.16;100.00;98703.43;1609188;89;24817;-87
2022/02/08 18:50:44;;;;;;;;;;;;;;;4.19;100.00;98705.07;1608689;87;26037;-87
2022/02/08 19:11:59;;;;;;;;;;;;;;;4.32;100.00;98755.92;1563909;90;22122;-87
2022/02/08 19:19:47;;;;;;;;;;;;;;;4.31;100.00;98748.59;1642939;86;20158;-87
2022/02/08 19:22:08;;;;;;;;;;;;;;;4.32;100.00;98741.22;1628228;86;24829;-87
2022/02/08 19:24:34;;;;;;;;;;;;;;;4.33;100.00;98757.61;1618642;87;21965;-87
2022/02/08 19:27:01;;;;;;;;;;;;;;;4.34;100.00;98760.59;1648198;86;26206;-88
2022/02/08 19:29:33;;;;;;;;;;;;;;;4.33;100.00;98753.72;1619517;87;20207;-87
2022/02/08 19:32:00;;;;;;;;;;;;;;;4.34;100.00;98753.67;1621812;87;20267;-87
2022/02/08 19:34:27;;;;;;;;;;;;;;;4.35;100.00;98760.55;1656967;86;24932;-85
2022/02/08 19:37:04;;;;;;;;;;;;;;;4.35;100.00;98755.36;1651220;86;22068;-85
2022/02/08 19:39:27;;;;;;;;;;;;;;;4.36;100.00;98758.35;1644264;86;26056;-88
2022/02/08 19:41:53;;;;;;;;;;;;;;;4.38;100.00;98766.04;1652643;86;24480;-90
2022/02/08 19:44:26;;;;;;;;;;;;;;;4.37;100.00;98777.30;1651343;86;20288;-85